Time;durP1;ratioP1;P1;durP2;ratioP2;P2;SDS_P1;SDS_P2;PMS_P1;PMS_P2;Temp;Humidity;BMP_temperature;BMP_pressure;BME280_temperature;BME280_humidity;BME280_pressure;Samples;Min_cycle;Max_cycle;Signal;HPM_P1;HPM_P2
2022/02/16 00:00:43;;;;;;;7.20;6.80;;;7.80;99.90;;;;;;4991743;28;20185;-67
2022/02/16 00:03:08;;;;;;;6.70;6.40;;;7.80;99.90;;;;;;4990442;28;20580;-67
2022/02/16 00:05:36;;;;;;;7.40;7.10;;;7.80;99.90;;;;;;4991723;28;20208;-67
2022/02/16 00:08:03;;;;;;;6.70;6.30;;;7.80;99.90;;;;;;4990397;28;20748;-68
2022/02/16 00:10:29;;;;;;;7.00;6.60;;;7.80;99.90;;;;;;4991531;28;20176;-68
2022/02/16 00:12:54;;;;;;;6.67;6.37;;;7.80;99.90;;;;;;4990134;28;20231;-67
2022/02/16 00:15:20;;;;;;;6.60;6.30;;;7.80;99.90;;;;;;4990414;28;20184;-68
2022/02/16 00:17:46;;;;;;;6.47;6.17;;;7.80;99.90;;;;;;4990213;28;20669;-68
2022/02/16 00:20:13;;;;;;;7.43;7.07;;;7.80;99.90;;;;;;4990226;28;20185;-68
2022/02/16 00:22:39;;;;;;;7.40;7.00;;;7.80;99.90;;;;;;4990019;28;20654;-67
2022/02/16 00:25:06;;;;;;;8.27;7.80;;;7.80;99.90;;;;;;4990464;28;20303;-68
2022/02/16 00:27:31;;;;;;;8.13;7.63;;;7.80;99.90;;;;;;4990026;28;20251;-68
2022/02/16 00:29:57;;;;;;;13.93;12.50;;;7.80;99.90;;;;;;4991492;28;20628;-68
2022/02/16 00:32:23;;;;;;;14.93;11.80;;;7.80;99.90;;;;;;4990179;28;20608;-68
2022/02/16 00:34:48;;;;;;;20.40;14.77;;;7.90;99.90;;;;;;4990204;28;20177;-68
2022/02/16 00:37:15;;;;;;;12.53;11.03;;;7.80;99.90;;;;;;4991854;28;20235;-68
2022/02/16 00:39:41;;;;;;;14.07;11.00;;;7.90;99.90;;;;;;4991338;28;20216;-68
2022/02/16 00:42:07;;;;;;;7.90;7.50;;;7.90;99.90;;;;;;4991326;28;20227;-67
2022/02/16 00:44:33;;;;;;;8.10;7.70;;;7.90;99.90;;;;;;4990015;28;20251;-68
2022/02/16 00:46:58;;;;;;;9.47;8.87;;;7.90;99.90;;;;;;4973820;28;20201;-68
2022/02/16 00:49:24;;;;;;;9.03;8.53;;;7.90;99.90;;;;;;4994284;28;20213;-68
2022/02/16 00:51:49;;;;;;;9.57;9.03;;;7.90;99.90;;;;;;4993934;28;20705;-68
2022/02/16 00:54:15;;;;;;;9.17;8.57;;;8.00;99.90;;;;;;4994559;28;20242;-68
2022/02/16 00:56:41;;;;;;;9.43;8.73;;;8.00;99.90;;;;;;4993592;28;20240;-67
2022/02/16 00:59:06;;;;;;;7.90;7.50;;;8.00;99.90;;;;;;4994518;28;20555;-68
2022/02/16 01:01:32;;;;;;;7.07;6.73;;;8.00;99.90;;;;;;4995009;28;20189;-69
2022/02/16 01:03:58;;;;;;;7.83;7.43;;;8.00;99.90;;;;;;4993180;28;20654;-68
2022/02/16 01:06:23;;;;;;;7.23;6.93;;;8.00;99.90;;;;;;4994012;28;20202;-68
2022/02/16 01:08:49;;;;;;;7.20;6.90;;;8.00;99.90;;;;;;4994710;28;20209;-67
2022/02/16 01:11:15;;;;;;;6.73;6.43;;;8.10;99.90;;;;;;4994585;28;20562;-68
2022/02/16 01:13:40;;;;;;;6.97;6.67;;;8.00;99.90;;;;;;4992594;28;20212;-69
2022/02/16 01:16:06;;;;;;;6.83;6.53;;;8.10;99.90;;;;;;4993147;28;20200;-67
2022/02/16 01:18:32;;;;;;;6.90;6.60;;;8.10;99.90;;;;;;4994222;28;20187;-68
2022/02/16 01:20:57;;;;;;;7.40;7.10;;;8.10;99.90;;;;;;4992752;28;20550;-68
2022/02/16 01:23:23;;;;;;;7.17;6.87;;;8.10;99.90;;;;;;4993856;28;20185;-68
2022/02/16 01:25:49;;;;;;;7.63;7.23;;;8.10;99.90;;;;;;4992913;28;20181;-68
2022/02/16 01:28:15;;;;;;;7.23;6.93;;;8.10;99.90;;;;;;4992624;28;20681;-68
2022/02/16 01:30:41;;;;;;;7.27;6.97;;;8.10;99.90;;;;;;4992835;28;20661;-68
2022/02/16 01:33:07;;;;;;;7.03;6.73;;;8.20;99.90;;;;;;4994034;28;20187;-69
2022/02/16 01:35:32;;;;;;;7.20;6.90;;;8.20;99.90;;;;;;4994299;28;20714;-68
2022/02/16 01:37:58;;;;;;;7.30;7.00;;;8.10;99.90;;;;;;4993064;28;20200;-67
2022/02/16 01:40:24;;;;;;;7.90;7.60;;;8.10;99.90;;;;;;4993943;28;20212;-68
2022/02/16 01:42:49;;;;;;;7.50;7.20;;;8.10;99.90;;;;;;4993979;28;20185;-68
2022/02/16 01:45:15;;;;;;;7.30;7.00;;;8.20;99.90;;;;;;4993761;28;20275;-68
2022/02/16 01:47:41;;;;;;;6.83;6.53;;;8.20;99.90;;;;;;4992765;28;20247;-68
2022/02/16 01:50:08;;;;;;;7.40;7.10;;;8.10;99.90;;;;;;4994086;28;20177;-67
2022/02/16 01:52:34;;;;;;;7.20;6.90;;;8.20;99.90;;;;;;4992293;28;20289;-68
2022/02/16 01:55:02;;;;;;;6.93;6.63;;;8.20;99.90;;;;;;4993895;28;20173;-68
2022/02/16 01:57:28;;;;;;;6.50;6.23;;;8.20;99.90;;;;;;4993689;28;20196;-68
2022/02/16 01:59:54;;;;;;;6.57;6.27;;;8.20;99.90;;;;;;4992519;28;20176;-67
2022/02/16 02:02:20;;;;;;;6.80;6.50;;;8.20;99.90;;;;;;5024775;28;20184;-67
2022/02/16 02:04:45;;;;;;;6.73;6.43;;;8.20;99.90;;;;;;4992339;28;20184;-68
2022/02/16 02:07:11;;;;;;;6.20;6.00;;;8.20;99.90;;;;;;4993912;28;20209;-68
2022/02/16 02:09:37;;;;;;;6.20;5.90;;;8.20;99.90;;;;;;4993326;28;20226;-68
2022/02/16 02:12:03;;;;;;;6.30;6.10;;;8.20;99.90;;;;;;4990994;28;20245;-68
2022/02/16 02:14:29;;;;;;;6.57;6.27;;;8.20;99.90;;;;;;4991717;28;20177;-68
2022/02/16 02:16:55;;;;;;;6.43;6.13;;;8.30;99.90;;;;;;4993661;28;20561;-68
2022/02/16 02:19:21;;;;;;;6.87;6.57;;;8.30;99.90;;;;;;4991859;28;20181;-68
2022/02/16 02:21:48;;;;;;;6.60;6.30;;;8.20;99.90;;;;;;4992213;28;20188;-68
2022/02/16 02:24:13;;;;;;;6.50;6.20;;;8.30;99.90;;;;;;4992241;28;20665;-68
2022/02/16 02:26:39;;;;;;;7.83;7.53;;;8.20;99.90;;;;;;4991501;28;20295;-68
2022/02/16 02:29:04;;;;;;;8.23;7.83;;;8.30;99.90;;;;;;4991708;28;20237;-68
2022/02/16 02:31:35;;;;;;;7.70;7.40;;;8.30;99.90;;;;;;4990920;28;20181;-68
2022/02/16 02:34:02;;;;;;;7.57;7.27;;;8.30;99.90;;;;;;4992255;28;20691;-68
2022/02/16 02:36:28;;;;;;;7.80;7.50;;;8.20;99.90;;;;;;4991689;28;20193;-67
2022/02/16 02:38:53;;;;;;;6.80;6.50;;;8.30;99.90;;;;;;4991561;28;20657;-68
2022/02/16 02:41:19;;;;;;;6.83;6.53;;;8.30;99.90;;;;;;4991835;28;20231;-68
2022/02/16 02:43:47;;;;;;;7.40;7.10;;;8.30;99.90;;;;;;4991137;28;20275;-68
2022/02/16 02:46:13;;;;;;;7.50;7.13;;;8.30;99.90;;;;;;4991632;28;20231;-68
2022/02/16 02:48:39;;;;;;;7.40;7.10;;;8.30;99.90;;;;;;4991554;28;20279;-68
2022/02/16 02:51:05;;;;;;;7.33;7.03;;;8.30;99.90;;;;;;4992552;28;20188;-68
2022/02/16 02:53:31;;;;;;;7.77;7.37;;;8.30;99.90;;;;;;4991155;28;20181;-68
2022/02/16 02:55:56;;;;;;;6.40;6.20;;;8.40;99.90;;;;;;4991069;28;20185;-69
2022/02/16 02:58:23;;;;;;;6.40;6.10;;;8.30;99.90;;;;;;4992334;28;20243;-68
2022/02/16 03:00:49;;;;;;;6.47;6.00;;;8.40;99.90;;;;;;4992613;28;20213;-68
2022/02/16 03:03:15;;;;;;;6.30;6.00;;;8.40;99.90;;;;;;4991165;28;20223;-68
2022/02/16 03:05:40;;;;;;;6.20;5.90;;;8.40;99.90;;;;;;4990899;28;20189;-68
2022/02/16 03:08:06;;;;;;;6.00;5.80;;;8.40;99.90;;;;;;4991023;28;20705;-69
2022/02/16 03:10:32;;;;;;;6.30;6.00;;;8.40;99.90;;;;;;4991764;28;20239;-68
2022/02/16 03:12:58;;;;;;;6.30;5.93;;;8.40;99.90;;;;;;4990923;28;20200;-69
2022/02/16 03:15:23;;;;;;;6.00;5.80;;;8.50;99.90;;;;;;4991021;28;20556;-68
2022/02/16 03:17:49;;;;;;;6.10;5.80;;;8.50;99.90;;;;;;4991031;28;20204;-68
2022/02/16 03:20:15;;;;;;;6.00;5.80;;;8.50;99.90;;;;;;4990919;28;20666;-68
2022/02/16 03:22:40;;;;;;;5.80;5.60;;;8.50;99.90;;;;;;4991542;28;20185;-68
2022/02/16 03:25:07;;;;;;;6.10;5.90;;;8.50;99.90;;;;;;4992496;28;20715;-68
2022/02/16 03:27:33;;;;;;;6.03;5.83;;;8.50;99.90;;;;;;4990126;28;20267;-68
2022/02/16 03:30:00;;;;;;;6.33;6.03;;;8.50;99.90;;;;;;4990893;28;20634;-68
2022/02/16 03:32:25;;;;;;;6.97;6.57;;;8.50;99.90;;;;;;4991879;28;20180;-68
2022/02/16 03:34:51;;;;;;;6.90;6.60;;;8.50;99.90;;;;;;4990829;28;20567;-68
2022/02/16 03:37:17;;;;;;;6.23;6.03;;;8.60;99.90;;;;;;4990665;28;20200;-68
2022/02/16 03:39:43;;;;;;;6.70;6.40;;;8.60;99.90;;;;;;4991787;28;20185;-68
2022/02/16 03:42:09;;;;;;;6.50;6.20;;;8.60;99.90;;;;;;4990686;28;20267;-69
2022/02/16 03:44:35;;;;;;;6.03;5.83;;;8.60;99.90;;;;;;4990618;28;20200;-68
2022/02/16 03:47:01;;;;;;;6.73;6.43;;;8.60;99.90;;;;;;4990766;28;20205;-68
2022/02/16 03:49:28;;;;;;;6.87;6.57;;;8.70;99.90;;;;;;4990338;28;20205;-67
2022/02/16 03:51:54;;;;;;;6.70;6.40;;;8.70;99.90;;;;;;4991223;28;20196;-69
2022/02/16 03:54:19;;;;;;;5.93;5.73;;;8.70;99.90;;;;;;4991626;28;20181;-68
2022/02/16 03:56:45;;;;;;;6.30;6.00;;;8.70;99.90;;;;;;4991602;28;20258;-68
2022/02/16 03:59:11;;;;;;;8.60;8.20;;;8.80;99.90;;;;;;4990738;28;20181;-68
2022/02/16 04:01:37;;;;;;;6.73;6.43;;;8.80;99.90;;;;;;4990518;28;20845;-68
2022/02/16 04:04:03;;;;;;;5.67;5.47;;;8.90;99.90;;;;;;4992169;28;20192;-68
2022/02/16 04:08:54;;;;;;;5.40;5.20;;;8.90;99.90;;;;;;4995825;23;20236;-68
2022/02/16 04:11:21;;;;;;;6.27;5.90;;;8.90;99.90;;;;;;4974776;28;20231;-68
2022/02/16 04:13:47;;;;;;;6.20;5.90;;;9.00;99.90;;;;;;4990366;28;20176;-68
2022/02/16 04:16:13;;;;;;;5.67;5.40;;;9.00;99.90;;;;;;4990522;28;20235;-68
2022/02/16 04:18:39;;;;;;;6.30;6.00;;;9.00;99.90;;;;;;4991732;28;20712;-68
2022/02/16 04:21:05;;;;;;;5.67;5.47;;;9.00;99.90;;;;;;4990479;28;20181;-68
2022/02/16 04:23:31;;;;;;;5.73;5.53;;;9.00;99.90;;;;;;4993482;28;20622;-68
2022/02/16 04:25:57;;;;;;;6.10;5.90;;;9.00;99.90;;;;;;4995594;28;20599;-68
2022/02/16 04:28:23;;;;;;;6.70;6.40;;;9.00;99.90;;;;;;4993848;28;20255;-68
2022/02/16 04:30:50;;;;;;;6.13;5.87;;;8.90;99.90;;;;;;4994150;28;20180;-68
2022/02/16 04:33:15;;;;;;;6.60;6.30;;;8.90;99.90;;;;;;4993772;28;20204;-67
2022/02/16 04:35:41;;;;;;;6.50;6.20;;;8.90;99.90;;;;;;4995341;28;20177;-68
2022/02/16 04:38:08;;;;;;;6.33;6.07;;;8.90;99.90;;;;;;4994311;28;20201;-67
2022/02/16 04:40:33;;;;;;;6.63;6.33;;;8.90;99.90;;;;;;4993768;28;20602;-67
2022/02/16 04:43:03;;;;;;;5.90;5.70;;;8.90;99.90;;;;;;4994930;28;20191;-68
2022/02/16 04:45:30;;;;;;;6.17;5.97;;;8.90;99.90;;;;;;4993902;28;20177;-68
2022/02/16 04:47:55;;;;;;;5.60;5.40;;;8.80;99.90;;;;;;4993657;28;20200;-68
2022/02/16 04:50:21;;;;;;;5.57;5.37;;;8.80;99.90;;;;;;4993513;28;20179;-68
2022/02/16 04:52:49;;;;;;;5.90;5.70;;;8.80;99.90;;;;;;4995025;28;20541;-68
2022/02/16 04:55:15;;;;;;;5.93;5.73;;;8.80;99.90;;;;;;4994934;28;20169;-68
2022/02/16 04:57:40;;;;;;;5.80;5.50;;;8.80;99.90;;;;;;4994973;28;20197;-67
2022/02/16 05:00:08;;;;;;;6.90;6.60;;;8.80;99.90;;;;;;4994996;28;20173;-68
2022/02/16 05:02:34;;;;;;;5.90;5.70;;;8.80;99.90;;;;;;4994275;28;20176;-67
2022/02/16 05:04:59;;;;;;;6.27;5.97;;;8.80;99.90;;;;;;4993477;28;20673;-69
2022/02/16 05:07:25;;;;;;;5.83;5.60;;;8.70;99.90;;;;;;4994432;28;20648;-67
2022/02/16 05:09:51;;;;;;;6.47;6.17;;;8.70;99.90;;;;;;4994844;28;20204;-67
2022/02/16 05:12:16;;;;;;;6.40;6.00;;;8.60;99.90;;;;;;4993034;28;20185;-67
2022/02/16 05:14:42;;;;;;;6.43;6.13;;;8.60;99.90;;;;;;4993478;28;20179;-67
2022/02/16 05:17:08;;;;;;;7.17;6.87;;;8.60;99.90;;;;;;4994191;28;20251;-68
2022/02/16 05:19:34;;;;;;;6.93;6.63;;;8.60;99.90;;;;;;4994645;28;20177;-68
2022/02/16 05:22:00;;;;;;;6.90;6.60;;;8.60;99.90;;;;;;4993511;28;20199;-67
2022/02/16 05:24:26;;;;;;;7.13;6.83;;;8.60;99.90;;;;;;4993145;28;20184;-67
2022/02/16 05:26:52;;;;;;;6.97;6.67;;;8.60;99.90;;;;;;4992849;28;20200;-68
2022/02/16 05:29:18;;;;;;;6.60;6.30;;;8.60;99.90;;;;;;4993127;28;20678;-68
2022/02/16 05:31:43;;;;;;;6.87;6.57;;;8.60;99.90;;;;;;4992848;28;20854;-67
2022/02/16 05:34:10;;;;;;;6.20;5.90;;;8.60;99.90;;;;;;4993724;28;20181;-67
2022/02/16 05:36:36;;;;;;;6.57;6.27;;;8.60;99.90;;;;;;4993865;28;20185;-68
2022/02/16 05:39:03;;;;;;;6.50;6.20;;;8.60;99.90;;;;;;4992799;28;20762;-67
2022/02/16 05:41:29;;;;;;;6.53;6.20;;;8.70;99.90;;;;;;4993030;28;20176;-67
2022/02/16 05:43:56;;;;;;;6.60;6.30;;;8.60;99.90;;;;;;4994352;28;20634;-68
2022/02/16 05:46:21;;;;;;;6.87;6.57;;;8.60;99.90;;;;;;5025542;28;20180;-67
2022/02/16 05:48:47;;;;;;;6.80;6.50;;;8.60;99.90;;;;;;4993771;28;20556;-68
2022/02/16 05:51:13;;;;;;;6.90;6.40;;;8.70;99.90;;;;;;4992854;28;20180;-68
2022/02/16 05:53:39;;;;;;;6.90;6.60;;;8.70;99.90;;;;;;4991152;28;20712;-67
2022/02/16 05:56:04;;;;;;;6.90;6.60;;;8.70;99.90;;;;;;4992775;28;20646;-67
2022/02/16 05:58:31;;;;;;;7.23;6.83;;;8.70;99.90;;;;;;4992045;28;20255;-68
2022/02/16 06:00:57;;;;;;;6.50;6.20;;;8.80;99.90;;;;;;4993853;28;20183;-67
2022/02/16 06:03:22;;;;;;;6.30;6.00;;;8.80;99.90;;;;;;4993244;28;20184;-67
2022/02/16 06:05:48;;;;;;;5.90;5.60;;;8.80;99.90;;;;;;4992578;28;20185;-67
2022/02/16 06:08:14;;;;;;;6.30;6.00;;;8.80;99.90;;;;;;4991848;28;20299;-67
2022/02/16 06:10:39;;;;;;;5.93;5.73;;;8.80;99.90;;;;;;4992009;28;20184;-67
2022/02/16 06:13:05;;;;;;;5.60;5.40;;;8.80;99.90;;;;;;4993140;28;20252;-67
2022/02/16 06:15:30;;;;;;;5.80;5.50;;;8.80;99.90;;;;;;4992960;28;20223;-67
2022/02/16 06:17:56;;;;;;;6.47;6.17;;;8.90;99.90;;;;;;4993195;28;20280;-67
2022/02/16 06:20:23;;;;;;;6.10;5.80;;;8.90;99.90;;;;;;4992995;28;20236;-67
2022/02/16 06:22:52;;;;;;;7.27;6.97;;;8.90;99.90;;;;;;4993149;28;20176;-67
2022/02/16 06:25:17;;;;;;;7.20;6.90;;;8.90;99.90;;;;;;4991729;28;20630;-67
2022/02/16 06:27:43;;;;;;;6.90;6.60;;;9.00;99.90;;;;;;4993141;28;20266;-67
2022/02/16 06:30:09;;;;;;;6.50;6.30;;;9.00;99.90;;;;;;4993063;28;20519;-66
2022/02/16 06:32:35;;;;;;;6.00;5.67;;;9.00;99.90;;;;;;4992416;28;20177;-67
2022/02/16 06:35:01;;;;;;;5.93;5.70;;;9.00;99.90;;;;;;4993073;28;20180;-68
2022/02/16 06:37:27;;;;;;;6.17;5.90;;;9.10;99.90;;;;;;4992797;28;20557;-68
2022/02/16 06:39:53;;;;;;;6.20;5.80;;;9.10;99.90;;;;;;4992840;28;20172;-68
2022/02/16 06:42:19;;;;;;;5.90;5.70;;;9.10;99.90;;;;;;4991458;28;20181;-67
2022/02/16 06:44:44;;;;;;;5.80;5.60;;;9.20;99.90;;;;;;4990750;28;20225;-67
2022/02/16 06:47:10;;;;;;;5.90;5.70;;;9.20;99.90;;;;;;4991189;28;20240;-67
2022/02/16 06:49:36;;;;;;;6.13;5.83;;;9.20;99.90;;;;;;4991040;28;20200;-67
2022/02/16 06:52:03;;;;;;;7.83;6.30;;;9.20;99.90;;;;;;4992556;28;20531;-67
2022/02/16 06:54:28;;;;;;;6.43;6.13;;;9.30;99.90;;;;;;4992379;28;20173;-67
2022/02/16 06:56:54;;;;;;;5.97;5.60;;;9.30;99.90;;;;;;4992689;28;20255;-66
2022/02/16 06:59:19;;;;;;;6.73;6.43;;;9.40;99.90;;;;;;4992458;28;20251;-66
2022/02/16 07:01:45;;;;;;;7.07;6.67;;;9.40;99.90;;;;;;4992370;28;20267;-66
2022/02/16 07:04:11;;;;;;;5.73;5.53;;;9.40;99.90;;;;;;4990928;28;20189;-66
2022/02/16 07:06:36;;;;;;;5.83;5.63;;;9.40;99.90;;;;;;4990712;28;20193;-66
2022/02/16 07:09:02;;;;;;;6.30;6.00;;;9.40;99.90;;;;;;4989585;28;20709;-66
2022/02/16 07:11:30;;;;;;;6.30;6.00;;;9.40;99.90;;;;;;4990758;28;20183;-66
2022/02/16 07:13:55;;;;;;;6.43;6.07;;;9.40;99.90;;;;;;4991973;28;20204;-65
2022/02/16 07:16:21;;;;;;;6.67;6.17;;;9.40;99.90;;;;;;4991966;28;20670;-66
2022/02/16 07:18:47;;;;;;;6.57;6.27;;;9.40;99.90;;;;;;4991885;28;20303;-66
2022/02/16 07:21:12;;;;;;;6.30;6.10;;;9.40;99.90;;;;;;4990937;28;20177;-65
2022/02/16 07:23:38;;;;;;;6.40;6.20;;;9.40;99.90;;;;;;4991321;28;20189;-67
2022/02/16 07:26:05;;;;;;;6.53;6.23;;;9.40;99.90;;;;;;4992112;28;20267;-67
2022/02/16 07:28:30;;;;;;;6.67;6.37;;;9.40;99.90;;;;;;4990098;28;20258;-66
2022/02/16 07:30:56;;;;;;;6.80;6.50;;;9.40;99.90;;;;;;4990367;28;20670;-67
2022/02/16 07:33:23;;;;;;;6.40;6.10;;;9.50;99.90;;;;;;4991426;28;20248;-67
2022/02/16 07:35:49;;;;;;;6.10;5.80;;;9.50;99.90;;;;;;4991845;28;20180;-67
2022/02/16 07:38:15;;;;;;;6.33;6.03;;;9.50;99.90;;;;;;4990320;28;20204;-67
2022/02/16 07:40:41;;;;;;;7.23;6.93;;;9.60;99.90;;;;;;4991383;28;20176;-67
2022/02/16 07:43:06;;;;;;;6.70;6.40;;;9.60;99.90;;;;;;4990495;28;20260;-67
2022/02/16 07:45:32;;;;;;;5.83;5.60;;;9.60;99.90;;;;;;4991231;28;20200;-67
2022/02/16 07:48:00;;;;;;;6.37;6.07;;;9.70;99.90;;;;;;4990405;28;20204;-68
2022/02/16 07:50:26;;;;;;;6.33;6.10;;;9.70;99.90;;;;;;4991435;28;20259;-66
2022/02/16 07:52:52;;;;;;;5.30;5.10;;;9.80;99.90;;;;;;4991690;28;20165;-68
2022/02/16 07:55:19;;;;;;;5.70;5.40;;;9.80;99.90;;;;;;4990448;28;20410;-66
2022/02/16 07:57:45;;;;;;;5.93;5.73;;;9.80;99.90;;;;;;4994187;28;20284;-66
2022/02/16 08:00:11;;;;;;;6.00;5.70;;;9.80;99.90;;;;;;4994640;28;20260;-67
2022/02/16 08:02:36;;;;;;;5.80;5.60;;;9.80;99.90;;;;;;4993642;28;20189;-66
2022/02/16 08:05:03;;;;;;;7.00;6.60;;;9.80;99.90;;;;;;4994466;28;20184;-66
2022/02/16 08:07:29;;;;;;;6.97;6.67;;;9.90;99.90;;;;;;4994033;28;20214;-66
2022/02/16 08:09:55;;;;;;;6.70;6.30;;;9.90;99.90;;;;;;4994351;28;20295;-66
2022/02/16 08:12:21;;;;;;;6.30;6.10;;;9.90;99.90;;;;;;4992703;28;20223;-66
2022/02/16 08:14:46;;;;;;;7.13;6.73;;;9.90;99.90;;;;;;4995226;28;20541;-66
2022/02/16 08:17:12;;;;;;;7.10;6.80;;;10.00;99.90;;;;;;4995642;28;20391;-67
2022/02/16 08:19:38;;;;;;;6.07;5.87;;;10.00;99.90;;;;;;4995282;28;20235;-66
2022/02/16 08:22:04;;;;;;;6.57;6.27;;;10.20;99.90;;;;;;4995084;28;20180;-68
2022/02/16 08:24:31;;;;;;;6.60;6.30;;;10.30;99.90;;;;;;4994409;28;20183;-67
2022/02/16 08:26:57;;;;;;;6.03;5.77;;;10.40;99.90;;;;;;4993508;28;20200;-68
2022/02/16 08:29:25;;;;;;;5.60;5.40;;;10.40;99.90;;;;;;4995000;28;20228;-68
2022/02/16 08:31:52;;;;;;;5.60;5.30;;;10.30;99.90;;;;;;4995048;28;20181;-68
2022/02/16 08:34:18;;;;;;;5.83;5.60;;;10.30;99.90;;;;;;4995144;28;20200;-68
2022/02/16 08:36:44;;;;;;;5.43;5.23;;;10.30;99.90;;;;;;4994699;28;20188;-68
2022/02/16 08:39:10;;;;;;;5.50;5.30;;;10.30;99.90;;;;;;4994860;28;20193;-67
2022/02/16 08:41:37;;;;;;;5.60;5.40;;;10.40;99.90;;;;;;4994829;28;20513;-68
2022/02/16 08:44:04;;;;;;;5.50;5.30;;;10.50;99.90;;;;;;4994861;28;20641;-68
2022/02/16 08:46:29;;;;;;;5.30;5.10;;;10.50;99.90;;;;;;4993208;28;20386;-68
2022/02/16 08:49:00;;;;;;;5.53;5.33;;;10.50;99.90;;;;;;4994450;28;20629;-67
2022/02/16 08:51:28;;;;;;;6.23;5.90;;;10.60;99.90;;;;;;4994863;28;20256;-68
2022/02/16 08:53:54;;;;;;;6.17;5.70;;;10.70;99.90;;;;;;4994026;28;20227;-69
2022/02/16 08:56:20;;;;;;;6.50;6.13;;;10.70;99.90;;;;;;4994590;28;20180;-68
2022/02/16 08:58:45;;;;;;;5.50;5.30;;;10.80;99.90;;;;;;4994402;28;20617;-68
2022/02/16 09:01:11;;;;;;;5.20;5.00;;;10.90;99.90;;;;;;4993010;28;20650;-68
2022/02/16 09:03:37;;;;;;;5.70;5.50;;;11.00;99.90;;;;;;4992424;28;20236;-68
2022/02/16 09:06:02;;;;;;;5.10;4.90;;;11.10;99.90;;;;;;4992881;28;20180;-68
2022/02/16 09:08:28;;;;;;;5.40;5.20;;;11.20;99.90;;;;;;4993411;28;20220;-68
2022/02/16 09:10:54;;;;;;;6.07;5.77;;;11.30;99.90;;;;;;4994431;28;20200;-68
2022/02/16 09:13:20;;;;;;;5.30;5.10;;;11.30;99.90;;;;;;4992450;28;20642;-67
2022/02/16 09:15:46;;;;;;;5.30;5.10;;;11.40;99.90;;;;;;4994307;28;20177;-67
2022/02/16 09:18:11;;;;;;;5.57;5.37;;;11.40;99.90;;;;;;4994374;28;20551;-67
2022/02/16 09:20:37;;;;;;;5.50;5.30;;;11.50;99.90;;;;;;4993909;28;20266;-67
2022/02/16 09:23:03;;;;;;;5.50;5.30;;;11.50;99.90;;;;;;4993959;28;20184;-68
2022/02/16 09:25:30;;;;;;;5.40;5.20;;;11.50;99.90;;;;;;4992600;28;20586;-68
2022/02/16 09:27:55;;;;;;;5.10;4.90;;;11.60;99.90;;;;;;4977687;28;20193;-68
2022/02/16 09:30:21;;;;;;;5.17;4.97;;;11.50;99.90;;;;;;4992637;28;20173;-68
2022/02/16 09:32:47;;;;;;;5.37;5.13;;;11.50;99.90;;;;;;4992527;28;20177;-67
2022/02/16 09:35:13;;;;;;;5.50;5.30;;;11.50;99.90;;;;;;4993689;28;20165;-67
2022/02/16 09:37:38;;;;;;;5.37;5.07;;;11.60;99.90;;;;;;4993788;28;20291;-67
2022/02/16 09:40:05;;;;;;;5.73;5.43;;;11.60;99.90;;;;;;4993896;28;20575;-67
2022/02/16 09:42:32;;;;;;;5.40;5.20;;;11.70;99.90;;;;;;4993582;28;20177;-67
2022/02/16 09:45:04;;;;;;;5.73;5.43;;;11.80;99.90;;;;;;4993588;28;20235;-67
2022/02/16 09:47:33;;;;;;;5.30;5.10;;;11.80;99.90;;;;;;4979395;28;20204;-67
2022/02/16 09:50:01;;;;;;;5.20;5.00;;;11.90;99.90;;;;;;4987967;28;20219;-67
2022/02/16 09:52:27;;;;;;;5.70;5.43;;;11.90;99.90;;;;;;4991677;28;20646;-67
2022/02/16 09:54:53;;;;;;;5.90;5.57;;;12.00;99.90;;;;;;4993240;28;20547;-67
2022/02/16 09:57:19;;;;;;;5.40;5.20;;;12.10;99.90;;;;;;4993633;28;20200;-67
2022/02/16 09:59:45;;;;;;;5.60;5.20;;;12.10;99.90;;;;;;4991980;28;20219;-67
2022/02/16 10:02:16;;;;;;;6.87;6.50;;;11.90;99.90;;;;;;4993216;28;20224;-67
2022/02/16 10:04:54;;;;;;;5.60;5.30;;;11.80;99.90;;;;;;4993054;28;20183;-66
2022/02/16 10:07:22;;;;;;;5.63;5.43;;;11.70;99.90;;;;;;4993982;28;20307;-66
2022/02/16 10:09:48;;;;;;;5.43;5.13;;;11.70;99.90;;;;;;4991530;28;20267;-66
2022/02/16 10:12:14;;;;;;;5.60;5.40;;;11.80;99.90;;;;;;4992043;28;20177;-67
2022/02/16 10:14:40;;;;;;;6.50;5.90;;;11.90;99.90;;;;;;4992802;28;20196;-66
2022/02/16 10:17:21;;;;;;;5.70;5.40;;;12.00;99.90;;;;;;4993196;28;20200;-67
2022/02/16 10:19:50;;;;;;;5.70;5.40;;;12.20;99.90;;;;;;4992252;28;20184;-67
2022/02/16 10:22:17;;;;;;;5.20;5.00;;;12.30;99.90;;;;;;4992708;28;20188;-67
2022/02/16 10:24:44;;;;;;;5.27;5.07;;;12.50;99.90;;;;;;4992389;28;20207;-66
2022/02/16 10:27:12;;;;;;;5.47;5.17;;;12.70;99.90;;;;;;4992798;28;20208;-66
2022/02/16 10:29:38;;;;;;;5.27;4.90;;;13.00;99.90;;;;;;4992434;28;20212;-66
2022/02/16 10:32:05;;;;;;;5.10;4.90;;;13.30;99.90;;;;;;4992955;28;20199;-66
2022/02/16 10:34:54;;;;;;;5.10;4.90;;;13.30;99.90;;;;;;4992162;28;20227;-66
2022/02/16 10:37:35;;;;;;;5.30;5.10;;;13.30;99.90;;;;;;4992364;28;20593;-66
2022/02/16 10:40:27;;;;;;;5.20;5.00;;;13.20;99.90;;;;;;4992495;28;20544;-67
2022/02/16 10:42:58;;;;;;;5.47;5.27;;;13.10;99.90;;;;;;4991945;28;20207;-67
2022/02/16 10:45:26;;;;;;;5.83;5.53;;;13.10;99.90;;;;;;4991051;28;20184;-66
2022/02/16 10:48:02;;;;;;;5.27;5.00;;;13.10;99.90;;;;;;4992449;28;20587;-66
2022/02/16 10:50:41;;;;;;;5.30;5.10;;;13.20;99.90;;;;;;4992200;28;20176;-66
2022/02/16 10:53:09;;;;;;;5.03;4.83;;;13.20;99.90;;;;;;5004436;28;20173;-66
2022/02/16 10:55:39;;;;;;;5.20;5.00;;;13.20;99.90;;;;;;4991345;28;20184;-66
2022/02/16 10:58:06;;;;;;;5.17;4.97;;;13.40;99.90;;;;;;4992224;28;20606;-66
2022/02/16 11:00:38;;;;;;;5.63;5.33;;;13.40;99.90;;;;;;4992313;28;20635;-65
2022/02/16 11:03:05;;;;;;;5.10;4.90;;;13.30;99.90;;;;;;4991686;28;20247;-66
2022/02/16 11:05:32;;;;;;;5.20;5.00;;;13.20;99.90;;;;;;4992166;28;20643;-66
2022/02/16 11:07:59;;;;;;;5.00;4.80;;;13.20;99.90;;;;;;4992004;28;20209;-66
2022/02/16 11:10:28;;;;;;;5.20;4.87;;;13.10;99.90;;;;;;4992122;28;20244;-67
2022/02/16 11:12:56;;;;;;;5.50;5.10;;;13.00;99.90;;;;;;4991569;28;20185;-66
2022/02/16 11:15:22;;;;;;;5.97;5.67;;;13.00;99.90;;;;;;4992029;28;20183;-66
2022/02/16 11:17:48;;;;;;;5.90;5.60;;;13.00;99.90;;;;;;4992104;28;20200;-66
2022/02/16 11:20:19;;;;;;;5.07;4.87;;;13.10;99.90;;;;;;4992001;28;20638;-66
2022/02/16 11:22:57;;;;;;;5.30;5.00;;;13.20;99.90;;;;;;4990912;28;20682;-66
2022/02/16 11:25:37;;;;;;;5.50;5.10;;;13.10;99.90;;;;;;4977568;28;20468;-66
2022/02/16 11:28:11;;;;;;;5.07;4.87;;;13.10;99.90;;;;;;4990320;28;20200;-67
2022/02/16 11:30:48;;;;;;;4.90;4.70;;;13.10;99.90;;;;;;4977887;28;20212;-66
2022/02/16 11:33:20;;;;;;;5.37;4.97;;;13.10;99.90;;;;;;4991149;28;20263;-66
2022/02/16 11:35:54;;;;;;;5.00;4.80;;;13.20;99.90;;;;;;4987002;28;20188;-67
2022/02/16 11:38:38;;;;;;;5.33;5.10;;;13.20;99.90;;;;;;4991641;28;20574;-66
2022/02/16 11:41:20;;;;;;;5.00;4.80;;;13.20;99.90;;;;;;4991496;28;20185;-66
2022/02/16 11:43:53;;;;;;;5.03;4.83;;;13.10;99.90;;;;;;4991235;28;20200;-66
2022/02/16 11:46:47;;;;;;;4.90;4.70;;;13.10;99.90;;;;;;4991664;28;20184;-66
2022/02/16 11:49:41;;;;;;;5.10;4.90;;;13.10;99.90;;;;;;4986231;28;20514;-65
2022/02/16 11:52:34;;;;;;;4.90;4.70;;;13.10;99.90;;;;;;4991469;28;20283;-66
2022/02/16 11:55:00;;;;;;;5.03;4.80;;;13.10;99.90;;;;;;4984809;28;20654;-66
2022/02/16 11:57:45;;;;;;;5.80;5.40;;;13.30;99.90;;;;;;4991675;28;20196;-66
2022/02/16 12:00:34;;;;;;;5.00;4.80;;;13.30;99.90;;;;;;4981033;28;20720;-66
2022/02/16 12:03:02;;;;;;;4.93;4.73;;;13.40;99.90;;;;;;4987582;28;20232;-66
2022/02/16 12:05:53;;;;;;;4.83;4.63;;;13.50;99.90;;;;;;4991403;28;20188;-66
2022/02/16 12:08:20;;;;;;;5.10;4.90;;;13.50;99.90;;;;;;4990938;28;20315;-66
2022/02/16 12:10:52;;;;;;;5.80;5.30;;;13.60;99.90;;;;;;4990932;28;20647;-66
2022/02/16 12:13:37;;;;;;;4.73;4.53;;;13.50;99.90;;;;;;4991110;28;20177;-66
2022/02/16 12:16:06;;;;;;;4.93;4.73;;;13.60;99.90;;;;;;4991294;28;20239;-68
2022/02/16 12:18:33;;;;;;;5.63;5.33;;;13.70;99.90;;;;;;4991118;28;20197;-66
2022/02/16 12:21:00;;;;;;;5.10;4.90;;;13.80;99.90;;;;;;4989852;28;20654;-70
2022/02/16 12:23:28;;;;;;;5.30;5.00;;;14.00;99.90;;;;;;4991095;28;20236;-66
2022/02/16 12:26:08;;;;;;;5.03;4.83;;;14.00;99.90;;;;;;4991710;28;20189;-66
2022/02/16 12:28:47;;;;;;;5.00;4.80;;;14.00;99.90;;;;;;4990797;28;20213;-66
2022/02/16 12:31:13;;;;;;;5.07;4.77;;;14.00;99.90;;;;;;4991098;28;20266;-67
2022/02/16 12:33:39;;;;;;;5.60;5.20;;;14.00;99.90;;;;;;4990544;28;20699;-66
2022/02/16 12:36:07;;;;;;;5.00;4.70;;;13.90;99.90;;;;;;4991495;28;20181;-67
2022/02/16 12:38:34;;;;;;;5.67;5.37;;;13.70;99.90;;;;;;4990994;28;20275;-66
2022/02/16 12:41:09;;;;;;;4.90;4.70;;;13.70;99.90;;;;;;4991025;28;20276;-66
2022/02/16 12:43:35;;;;;;;4.93;4.70;;;13.70;99.90;;;;;;4989931;28;20227;-65
2022/02/16 12:46:02;;;;;;;5.13;4.83;;;13.70;99.90;;;;;;4993409;28;20184;-66
2022/02/16 12:48:27;;;;;;;5.90;5.50;;;13.70;99.90;;;;;;4992988;28;20208;-66
2022/02/16 12:51:05;;;;;;;5.60;5.30;;;13.40;99.90;;;;;;4994976;28;20296;-67
2022/02/16 12:53:38;;;;;;;6.00;5.70;;;13.00;99.90;;;;;;4994380;28;20208;-66
2022/02/16 12:56:11;;;;;;;5.70;5.50;;;12.80;99.90;;;;;;4994920;28;20259;-67